sensor_id;sensor_type;location;lat;lon;timestamp;pressure;altitude;pressure_sealevel;temperature;humidity
71768;BME280;59604;52.138;5.446;2022-12-18T00:01:05;103059.53;;;-3.58;98.50
71768;BME280;59604;52.138;5.446;2022-12-18T00:03:35;103055.22;;;-3.57;99.06
71768;BME280;59604;52.138;5.446;2022-12-18T00:06:02;103051.03;;;-3.61;98.77
71768;BME280;59604;52.138;5.446;2022-12-18T00:08:29;103049.31;;;-3.61;98.48
71768;BME280;59604;52.138;5.446;2022-12-18T00:11:03;103044.06;;;-3.58;98.91
71768;BME280;59604;52.138;5.446;2022-12-18T00:13:32;103038.97;;;-3.59;98.85
71768;BME280;59604;52.138;5.446;2022-12-18T00:16:04;103040.88;;;-3.66;98.66
71768;BME280;59604;52.138;5.446;2022-12-18T00:18:32;103035.81;;;-3.69;99.16
71768;BME280;59604;52.138;5.446;2022-12-18T00:21:00;103034.94;;;-3.68;98.72
71768;BME280;59604;52.138;5.446;2022-12-18T00:23:28;103039.19;;;-3.67;98.86
71768;BME280;59604;52.138;5.446;2022-12-18T00:25:59;103041.78;;;-3.69;98.83
71768;BME280;59604;52.138;5.446;2022-12-18T00:28:26;103046.91;;;-3.67;99.01
71768;BME280;59604;52.138;5.446;2022-12-18T00:31:11;103046.84;;;-3.64;99.18
71768;BME280;59604;52.138;5.446;2022-12-18T00:33:38;103039.91;;;-3.62;99.08
71768;BME280;59604;52.138;5.446;2022-12-18T00:36:07;103032.22;;;-3.63;99.22
71768;BME280;59604;52.138;5.446;2022-12-18T00:38:35;103033.06;;;-3.63;98.97
71768;BME280;59604;52.138;5.446;2022-12-18T00:41:03;103032.38;;;-3.68;98.70
71768;BME280;59604;52.138;5.446;2022-12-18T00:43:29;103033.19;;;-3.68;98.92
71768;BME280;59604;52.138;5.446;2022-12-18T00:45:56;103035.72;;;-3.66;98.90
71768;BME280;59604;52.138;5.446;2022-12-18T00:48:22;103038.25;;;-3.65;98.91
71768;BME280;59604;52.138;5.446;2022-12-18T00:50:49;103042.56;;;-3.65;98.97
71768;BME280;59604;52.138;5.446;2022-12-18T00:53:17;103044.41;;;-3.70;98.67
71768;BME280;59604;52.138;5.446;2022-12-18T00:55:45;103034.13;;;-3.70;98.58
71768;BME280;59604;52.138;5.446;2022-12-18T00:58:13;103041.91;;;-3.73;98.94
71768;BME280;59604;52.138;5.446;2022-12-18T01:00:40;103024.78;;;-3.74;98.95
71768;BME280;59604;52.138;5.446;2022-12-18T01:03:07;103036.84;;;-3.76;98.42
71768;BME280;59604;52.138;5.446;2022-12-18T01:05:34;103031.78;;;-3.79;98.77
71768;BME280;59604;52.138;5.446;2022-12-18T01:08:00;103033.56;;;-3.81;98.77
71768;BME280;59604;52.138;5.446;2022-12-18T01:10:27;103016.47;;;-3.84;98.76
71768;BME280;59604;52.138;5.446;2022-12-18T01:12:53;103020.81;;;-3.86;98.94
71768;BME280;59604;52.138;5.446;2022-12-18T01:15:20;103025.13;;;-3.86;98.86
71768;BME280;59604;52.138;5.446;2022-12-18T01:17:46;103027.78;;;-3.90;99.11
71768;BME280;59604;52.138;5.446;2022-12-18T01:20:13;103022.63;;;-3.90;99.00
71768;BME280;59604;52.138;5.446;2022-12-18T01:22:40;103027.59;;;-3.83;99.25
71768;BME280;59604;52.138;5.446;2022-12-18T01:25:07;103032.72;;;-3.82;99.45
71768;BME280;59604;52.138;5.446;2022-12-18T01:27:34;103041.28;;;-3.81;99.13
71768;BME280;59604;52.138;5.446;2022-12-18T01:30:01;103044.75;;;-3.82;99.10
71768;BME280;59604;52.138;5.446;2022-12-18T01:32:30;103045.66;;;-3.85;99.02
71768;BME280;59604;52.138;5.446;2022-12-18T01:34:57;103049.22;;;-3.89;99.01
71768;BME280;59604;52.138;5.446;2022-12-18T01:37:24;103057.06;;;-3.94;99.23
71768;BME280;59604;52.138;5.446;2022-12-18T01:39:52;103055.31;;;-3.93;99.35
71768;BME280;59604;52.138;5.446;2022-12-18T01:42:21;103054.44;;;-3.92;99.38
71768;BME280;59604;52.138;5.446;2022-12-18T01:45:09;103051.09;;;-3.96;99.28
71768;BME280;59604;52.138;5.446;2022-12-18T01:47:49;103048.66;;;-4.02;99.40
71768;BME280;59604;52.138;5.446;2022-12-18T01:50:21;103051.34;;;-4.06;99.20
71768;BME280;59604;52.138;5.446;2022-12-18T01:53:00;103057.41;;;-4.07;99.15
71768;BME280;59604;52.138;5.446;2022-12-18T01:55:31;103044.66;;;-4.12;99.29
71768;BME280;59604;52.138;5.446;2022-12-18T01:58:00;103051.63;;;-4.17;98.89
71768;BME280;59604;52.138;5.446;2022-12-18T02:00:27;103048.34;;;-4.24;99.17
71768;BME280;59604;52.138;5.446;2022-12-18T02:02:54;103052.78;;;-4.29;98.65
71768;BME280;59604;52.138;5.446;2022-12-18T02:08:11;103066.00;;;-4.44;98.54
71768;BME280;59604;52.138;5.446;2022-12-18T02:11:10;103066.19;;;-4.53;98.66
71768;BME280;59604;52.138;5.446;2022-12-18T02:13:52;103072.34;;;-4.59;98.44
71768;BME280;59604;52.138;5.446;2022-12-18T02:16:59;103054.53;;;-4.67;98.66
71768;BME280;59604;52.138;5.446;2022-12-18T02:19:44;103050.47;;;-4.77;98.44
71768;BME280;59604;52.138;5.446;2022-12-18T02:28:00;103056.66;;;-4.86;98.23
71768;BME280;59604;52.138;5.446;2022-12-18T02:30:31;103072.09;;;-4.87;98.44
71768;BME280;59604;52.138;5.446;2022-12-18T02:33:00;103071.25;;;-4.88;98.46
71768;BME280;59604;52.138;5.446;2022-12-18T02:35:32;103057.56;;;-4.88;98.34
71768;BME280;59604;52.138;5.446;2022-12-18T02:38:01;103067.03;;;-4.90;98.29
71768;BME280;59604;52.138;5.446;2022-12-18T02:40:29;103062.88;;;-4.96;98.27
71768;BME280;59604;52.138;5.446;2022-12-18T02:43:11;103055.31;;;-5.03;98.23
71768;BME280;59604;52.138;5.446;2022-12-18T02:45:50;103052.75;;;-5.03;98.24
71768;BME280;59604;52.138;5.446;2022-12-18T02:48:22;103043.44;;;-5.07;98.18
71768;BME280;59604;52.138;5.446;2022-12-18T02:51:16;103040.13;;;-5.14;97.87
71768;BME280;59604;52.138;5.446;2022-12-18T02:54:11;103044.44;;;-5.16;97.83
71768;BME280;59604;52.138;5.446;2022-12-18T02:56:47;103045.31;;;-5.17;97.93
71768;BME280;59604;52.138;5.446;2022-12-18T02:59:29;103041.91;;;-5.18;97.94
71768;BME280;59604;52.138;5.446;2022-12-18T03:01:58;103039.38;;;-5.19;97.90
71768;BME280;59604;52.138;5.446;2022-12-18T03:04:39;103039.44;;;-5.22;98.06
71768;BME280;59604;52.138;5.446;2022-12-18T03:07:16;103030.06;;;-5.25;97.88
71768;BME280;59604;52.138;5.446;2022-12-18T03:09:47;103027.56;;;-5.26;97.85
71768;BME280;59604;52.138;5.446;2022-12-18T03:12:19;103022.47;;;-5.29;97.56
71768;BME280;59604;52.138;5.446;2022-12-18T03:15:14;103033.75;;;-5.37;97.50
71768;BME280;59604;52.138;5.446;2022-12-18T03:17:50;103026.06;;;-5.38;97.48
71768;BME280;59604;52.138;5.446;2022-12-18T03:20:21;103026.06;;;-5.38;97.30
71768;BME280;59604;52.138;5.446;2022-12-18T03:22:53;103021.00;;;-5.41;97.46
71768;BME280;59604;52.138;5.446;2022-12-18T03:25:23;103024.47;;;-5.44;97.57
71768;BME280;59604;52.138;5.446;2022-12-18T03:27:56;103015.97;;;-5.47;97.31
71768;BME280;59604;52.138;5.446;2022-12-18T03:30:24;103016.03;;;-5.50;96.79
71768;BME280;59604;52.138;5.446;2022-12-18T03:33:04;103013.56;;;-5.56;96.87
71768;BME280;59604;52.138;5.446;2022-12-18T03:35:37;103005.19;;;-5.65;96.86
71768;BME280;59604;52.138;5.446;2022-12-18T03:38:06;102999.16;;;-5.64;97.07
71768;BME280;59604;52.138;5.446;2022-12-18T03:41:02;102992.41;;;-5.66;97.01
71768;BME280;59604;52.138;5.446;2022-12-18T03:43:48;103006.09;;;-5.67;96.65
71768;BME280;59604;52.138;5.446;2022-12-18T03:46:28;102989.88;;;-5.69;96.97
71768;BME280;59604;52.138;5.446;2022-12-18T03:49:06;102984.84;;;-5.74;97.12
71768;BME280;59604;52.138;5.446;2022-12-18T03:54:11;102989.25;;;-5.80;96.50
71768;BME280;59604;52.138;5.446;2022-12-18T03:56:42;102986.63;;;-5.79;96.67
71768;BME280;59604;52.138;5.446;2022-12-18T03:59:12;102996.06;;;-5.79;96.63
71768;BME280;59604;52.138;5.446;2022-12-18T04:01:49;102989.25;;;-5.80;96.78
71768;BME280;59604;52.138;5.446;2022-12-18T04:04:18;102993.53;;;-5.83;96.92
71768;BME280;59604;52.138;5.446;2022-12-18T04:06:47;102985.94;;;-5.87;96.80
71768;BME280;59604;52.138;5.446;2022-12-18T04:09:16;102979.19;;;-5.91;96.78
71768;BME280;59604;52.138;5.446;2022-12-18T04:11:42;102975.81;;;-5.93;96.55
71768;BME280;59604;52.138;5.446;2022-12-18T04:14:12;102979.31;;;-5.96;96.41
71768;BME280;59604;52.138;5.446;2022-12-18T04:16:43;102981.03;;;-5.96;96.54
71768;BME280;59604;52.138;5.446;2022-12-18T04:19:10;102966.53;;;-6.00;96.82
71768;BME280;59604;52.138;5.446;2022-12-18T04:21:36;102958.06;;;-6.04;96.48
71768;BME280;59604;52.138;5.446;2022-12-18T04:24:03;102966.63;;;-6.05;96.58
71768;BME280;59604;52.138;5.446;2022-12-18T04:26:30;102967.59;;;-6.11;96.40
71768;BME280;59604;52.138;5.446;2022-12-18T04:28:57;102951.44;;;-6.14;96.39
71768;BME280;59604;52.138;5.446;2022-12-18T04:31:23;102955.72;;;-6.16;96.40
71768;BME280;59604;52.138;5.446;2022-12-18T04:33:53;102957.41;;;-6.14;96.52
71768;BME280;59604;52.138;5.446;2022-12-18T04:36:19;102958.28;;;-6.15;96.17
71768;BME280;59604;52.138;5.446;2022-12-18T04:38:46;102955.66;;;-6.13;96.77
71768;BME280;59604;52.138;5.446;2022-12-18T04:41:13;102954.00;;;-6.14;96.62
71768;BME280;59604;52.138;5.446;2022-12-18T04:43:39;102955.72;;;-6.15;95.99
71768;BME280;59604;52.138;5.446;2022-12-18T04:46:07;102959.19;;;-6.19;96.47
71768;BME280;59604;52.138;5.446;2022-12-18T04:48:35;102973.72;;;-6.19;96.17
71768;BME280;59604;52.138;5.446;2022-12-18T04:51:02;102968.63;;;-6.21;96.39
71768;BME280;59604;52.138;5.446;2022-12-18T04:53:28;102979.78;;;-6.22;96.48
71768;BME280;59604;52.138;5.446;2022-12-18T04:56:06;102994.31;;;-6.24;96.08
71768;BME280;59604;52.138;5.446;2022-12-18T04:58:33;102983.25;;;-6.26;96.34
71768;BME280;59604;52.138;5.446;2022-12-18T05:01:00;102993.59;;;-6.30;96.19
71768;BME280;59604;52.138;5.446;2022-12-18T05:03:26;102991.94;;;-6.33;96.19
71768;BME280;59604;52.138;5.446;2022-12-18T05:05:53;103001.34;;;-6.35;96.17
71768;BME280;59604;52.138;5.446;2022-12-18T05:08:20;103005.69;;;-6.39;96.19
71768;BME280;59604;52.138;5.446;2022-12-18T05:10:46;103014.31;;;-6.43;96.59
71768;BME280;59604;52.138;5.446;2022-12-18T05:13:13;103016.00;;;-6.42;96.17
71768;BME280;59604;52.138;5.446;2022-12-18T05:15:39;103009.19;;;-6.43;96.31
71768;BME280;59604;52.138;5.446;2022-12-18T05:18:08;103009.19;;;-6.43;96.23
71768;BME280;59604;52.138;5.446;2022-12-18T05:20:34;103016.06;;;-6.46;95.95
71768;BME280;59604;52.138;5.446;2022-12-18T05:23:01;103028.84;;;-6.45;96.37
71768;BME280;59604;52.138;5.446;2022-12-18T05:25:27;103022.88;;;-6.45;96.50
71768;BME280;59604;52.138;5.446;2022-12-18T05:27:54;103025.44;;;-6.45;96.14
71768;BME280;59604;52.138;5.446;2022-12-18T05:30:21;103027.13;;;-6.44;96.47
71768;BME280;59604;52.138;5.446;2022-12-18T05:32:48;103044.19;;;-6.42;96.33
71768;BME280;59604;52.138;5.446;2022-12-18T05:35:15;103042.50;;;-6.44;96.39
71768;BME280;59604;52.138;5.446;2022-12-18T05:37:41;103038.34;;;-6.50;96.30
71768;BME280;59604;52.138;5.446;2022-12-18T05:40:09;103035.81;;;-6.51;96.07
71768;BME280;59604;52.138;5.446;2022-12-18T05:42:36;103034.06;;;-6.49;96.58
71768;BME280;59604;52.138;5.446;2022-12-18T05:45:04;103028.97;;;-6.51;96.07
71768;BME280;59604;52.138;5.446;2022-12-18T05:47:31;103018.75;;;-6.56;95.90
71768;BME280;59604;52.138;5.446;2022-12-18T05:49:57;103017.22;;;-6.66;95.79
71768;BME280;59604;52.138;5.446;2022-12-18T05:52:24;103014.78;;;-6.75;96.03
71768;BME280;59604;52.138;5.446;2022-12-18T05:54:50;103008.91;;;-6.82;95.99
71768;BME280;59604;52.138;5.446;2022-12-18T05:57:17;103005.53;;;-6.85;95.75
71768;BME280;59604;52.138;5.446;2022-12-18T05:59:43;102999.59;;;-6.89;96.22
71768;BME280;59604;52.138;5.446;2022-12-18T06:02:10;103007.28;;;-6.89;96.14
71768;BME280;59604;52.138;5.446;2022-12-18T06:04:37;103001.38;;;-6.91;96.26
71768;BME280;59604;52.138;5.446;2022-12-18T06:07:03;103001.44;;;-6.95;95.95
71768;BME280;59604;52.138;5.446;2022-12-18T06:09:30;102999.66;;;-6.90;96.38
71768;BME280;59604;52.138;5.446;2022-12-18T06:11:57;102998.75;;;-6.89;96.17
71768;BME280;59604;52.138;5.446;2022-12-18T06:14:23;102997.03;;;-6.87;96.44
71768;BME280;59604;52.138;5.446;2022-12-18T06:16:50;102991.91;;;-6.87;96.23
71768;BME280;59604;52.138;5.446;2022-12-18T06:19:18;102983.34;;;-6.86;96.17
71768;BME280;59604;52.138;5.446;2022-12-18T06:21:45;102982.50;;;-6.87;95.83
71768;BME280;59604;52.138;5.446;2022-12-18T06:24:11;102981.66;;;-6.87;96.18
71768;BME280;59604;52.138;5.446;2022-12-18T06:26:38;102980.06;;;-6.94;95.41
71768;BME280;59604;52.138;5.446;2022-12-18T06:29:05;102976.69;;;-6.98;96.01
71768;BME280;59604;52.138;5.446;2022-12-18T06:31:32;102975.03;;;-6.99;95.85
71768;BME280;59604;52.138;5.446;2022-12-18T06:34:01;102972.47;;;-7.00;96.16
71768;BME280;59604;52.138;5.446;2022-12-18T06:36:28;102975.06;;;-7.02;95.68
71768;BME280;59604;52.138;5.446;2022-12-18T06:38:56;102966.53;;;-7.04;95.82
71768;BME280;59604;52.138;5.446;2022-12-18T06:41:23;102964.88;;;-7.08;96.00
71768;BME280;59604;52.138;5.446;2022-12-18T06:43:50;102963.22;;;-7.11;96.38
71768;BME280;59604;52.138;5.446;2022-12-18T06:46:20;102964.09;;;-7.10;95.83
71768;BME280;59604;52.138;5.446;2022-12-18T06:48:48;102960.66;;;-7.09;96.03
71768;BME280;59604;52.138;5.446;2022-12-18T06:51:20;102947.84;;;-7.11;95.80
71768;BME280;59604;52.138;5.446;2022-12-18T06:53:47;102950.44;;;-7.12;96.05
71768;BME280;59604;52.138;5.446;2022-12-18T06:56:14;102950.44;;;-7.12;96.08
71768;BME280;59604;52.138;5.446;2022-12-18T06:58:40;102940.16;;;-7.11;96.45
71768;BME280;59604;52.138;5.446;2022-12-18T07:01:09;102940.16;;;-7.11;96.13
71768;BME280;59604;52.138;5.446;2022-12-18T07:03:38;102932.50;;;-7.12;95.70
71768;BME280;59604;52.138;5.446;2022-12-18T07:06:06;102924.88;;;-7.14;95.79
71768;BME280;59604;52.138;5.446;2022-12-18T07:08:33;102930.78;;;-7.12;96.04
71768;BME280;59604;52.138;5.446;2022-12-18T07:11:03;102931.63;;;-7.11;95.95
71768;BME280;59604;52.138;5.446;2022-12-18T07:13:30;102935.09;;;-7.14;95.65
71768;BME280;59604;52.138;5.446;2022-12-18T07:16:10;102927.41;;;-7.12;95.62
71768;BME280;59604;52.138;5.446;2022-12-18T07:18:47;102928.22;;;-7.12;95.94
71768;BME280;59604;52.138;5.446;2022-12-18T07:21:17;102923.16;;;-7.15;95.52
71768;BME280;59604;52.138;5.446;2022-12-18T07:23:44;102918.16;;;-7.22;95.39
71768;BME280;59604;52.138;5.446;2022-12-18T07:26:16;102923.25;;;-7.21;95.77
71768;BME280;59604;52.138;5.446;2022-12-18T07:28:42;102922.34;;;-7.18;95.43
71768;BME280;59604;52.138;5.446;2022-12-18T07:31:12;102925.78;;;-7.19;95.49
71768;BME280;59604;52.138;5.446;2022-12-18T07:33:40;102918.94;;;-7.17;95.76
71768;BME280;59604;52.138;5.446;2022-12-18T07:36:08;102907.06;;;-7.21;95.10
71768;BME280;59604;52.138;5.446;2022-12-18T07:38:36;102895.09;;;-7.22;95.33
71768;BME280;59604;52.138;5.446;2022-12-18T07:41:10;102889.97;;;-7.22;95.74
71768;BME280;59604;52.138;5.446;2022-12-18T07:43:38;102901.03;;;-7.19;95.69
71768;BME280;59604;52.138;5.446;2022-12-18T07:46:07;102899.34;;;-7.20;95.16
71768;BME280;59604;52.138;5.446;2022-12-18T07:48:34;102879.69;;;-7.19;95.32
71768;BME280;59604;52.138;5.446;2022-12-18T07:51:05;102872.84;;;-7.19;95.43
71768;BME280;59604;52.138;5.446;2022-12-18T07:53:33;102877.13;;;-7.18;95.60
71768;BME280;59604;52.138;5.446;2022-12-18T07:56:03;102866.81;;;-7.15;95.84
71768;BME280;59604;52.138;5.446;2022-12-18T07:58:51;102863.34;;;-7.11;95.58
71768;BME280;59604;52.138;5.446;2022-12-18T08:01:17;102869.28;;;-7.09;95.56
71768;BME280;59604;52.138;5.446;2022-12-18T08:03:46;102863.28;;;-7.08;95.75
71768;BME280;59604;52.138;5.446;2022-12-18T08:06:13;102866.66;;;-7.04;96.05
71768;BME280;59604;52.138;5.446;2022-12-18T08:08:39;102870.00;;;-7.00;96.19
71768;BME280;59604;52.138;5.446;2022-12-18T08:11:08;102857.13;;;-6.96;95.67
71768;BME280;59604;52.138;5.446;2022-12-18T08:13:35;102849.44;;;-6.94;96.23
71768;BME280;59604;52.138;5.446;2022-12-18T08:16:05;102847.63;;;-6.88;96.23
71768;BME280;59604;52.138;5.446;2022-12-18T08:18:33;102845.81;;;-6.83;95.93
71768;BME280;59604;52.138;5.446;2022-12-18T08:21:18;102848.31;;;-6.79;95.98
71768;BME280;59604;52.138;5.446;2022-12-18T08:23:47;102866.13;;;-6.72;96.13
71768;BME280;59604;52.138;5.446;2022-12-18T08:26:14;102860.91;;;-6.67;96.35
71768;BME280;59604;52.138;5.446;2022-12-18T08:28:41;102865.09;;;-6.62;96.57
71768;BME280;59604;52.138;5.446;2022-12-18T08:31:08;102861.63;;;-6.59;96.03
71768;BME280;59604;52.138;5.446;2022-12-18T08:33:36;102878.63;;;-6.53;96.34
71768;BME280;59604;52.138;5.446;2022-12-18T08:36:05;102882.84;;;-6.51;96.24
71768;BME280;59604;52.138;5.446;2022-12-18T08:38:32;102880.25;;;-6.48;96.77
71768;BME280;59604;52.138;5.446;2022-12-18T08:41:03;102882.69;;;-6.42;96.86
71768;BME280;59604;52.138;5.446;2022-12-18T08:43:30;102885.19;;;-6.39;96.77
71768;BME280;59604;52.138;5.446;2022-12-18T08:46:15;102877.50;;;-6.39;96.76
71768;BME280;59604;52.138;5.446;2022-12-18T08:48:41;102862.91;;;-6.35;96.84
71768;BME280;59604;52.138;5.446;2022-12-18T08:51:08;102867.16;;;-6.34;97.13
71768;BME280;59604;52.138;5.446;2022-12-18T08:53:36;102872.22;;;-6.29;97.34
71768;BME280;59604;52.138;5.446;2022-12-18T08:56:04;102875.53;;;-6.24;97.57
71768;BME280;59604;52.138;5.446;2022-12-18T08:58:31;102866.00;;;-6.19;97.26
71768;BME280;59604;52.138;5.446;2022-12-18T09:01:04;102871.91;;;-6.14;97.16
71768;BME280;59604;52.138;5.446;2022-12-18T09:03:32;102872.59;;;-6.06;97.95
71768;BME280;59604;52.138;5.446;2022-12-18T09:05:58;102887.00;;;-5.99;97.72
71768;BME280;59604;52.138;5.446;2022-12-18T09:08:26;102880.03;;;-5.92;97.86
71768;BME280;59604;52.138;5.446;2022-12-18T09:10:53;102884.97;;;-5.85;97.71
71768;BME280;59604;52.138;5.446;2022-12-18T09:13:19;102871.97;;;-5.77;98.07
71768;BME280;59604;52.138;5.446;2022-12-18T09:15:51;102863.28;;;-5.71;98.26
71768;BME280;59604;52.138;5.446;2022-12-18T09:18:21;102861.44;;;-5.65;98.17
71768;BME280;59604;52.138;5.446;2022-12-18T09:20:47;102861.31;;;-5.59;98.42
71768;BME280;59604;52.138;5.446;2022-12-18T09:23:14;102858.53;;;-5.49;98.53
71768;BME280;59604;52.138;5.446;2022-12-18T09:25:41;102854.09;;;-5.41;98.22
71768;BME280;59604;52.138;5.446;2022-12-18T09:28:13;102864.13;;;-5.32;98.69
71768;BME280;59604;52.138;5.446;2022-12-18T09:30:45;102857.13;;;-5.25;98.16
71768;BME280;59604;52.138;5.446;2022-12-18T09:33:13;102859.47;;;-5.15;98.52
71768;BME280;59604;52.138;5.446;2022-12-18T09:35:41;102855.81;;;-5.06;98.84
71768;BME280;59604;52.138;5.446;2022-12-18T09:38:11;102844.56;;;-5.00;98.91
71768;BME280;59604;52.138;5.446;2022-12-18T09:40:45;102840.84;;;-4.90;99.30
71768;BME280;59604;52.138;5.446;2022-12-18T09:46:08;102836.97;;;-4.72;99.29
71768;BME280;59604;52.138;5.446;2022-12-18T09:48:42;102834.25;;;-4.66;99.53
71768;BME280;59604;52.138;5.446;2022-12-18T09:51:16;102836.69;;;-4.60;99.48
71768;BME280;59604;52.138;5.446;2022-12-18T09:53:53;102832.16;;;-4.52;99.77
71768;BME280;59604;52.138;5.446;2022-12-18T09:56:22;102822.56;;;-4.45;99.68
71768;BME280;59604;52.138;5.446;2022-12-18T09:58:55;102817.22;;;-4.38;99.85
71768;BME280;59604;52.138;5.446;2022-12-18T10:01:24;102816.16;;;-4.30;99.95
71768;BME280;59604;52.138;5.446;2022-12-18T10:04:00;102813.31;;;-4.21;100.00
71768;BME280;59604;52.138;5.446;2022-12-18T10:09:03;102805.19;;;-4.07;100.00
71768;BME280;59604;52.138;5.446;2022-12-18T10:11:51;102810.06;;;-3.98;100.00
71768;BME280;59604;52.138;5.446;2022-12-18T10:14:30;102806.41;;;-3.91;99.68
71768;BME280;59604;52.138;5.446;2022-12-18T10:19:54;102802.59;;;-3.78;99.74
71768;BME280;59604;52.138;5.446;2022-12-18T10:22:32;102794.72;;;-3.73;99.75
71768;BME280;59604;52.138;5.446;2022-12-18T10:27:46;102795.25;;;-3.62;99.54
71768;BME280;59604;52.138;5.446;2022-12-18T10:30:20;102795.09;;;-3.57;99.42
71768;BME280;59604;52.138;5.446;2022-12-18T10:32:47;102796.72;;;-3.55;99.16
71768;BME280;59604;52.138;5.446;2022-12-18T10:35:23;102788.84;;;-3.50;99.10
71768;BME280;59604;52.138;5.446;2022-12-18T10:38:47;102783.53;;;-3.44;99.06
71768;BME280;59604;52.138;5.446;2022-12-18T10:43:35;102788.31;;;-3.33;99.04
71768;BME280;59604;52.138;5.446;2022-12-18T10:48:35;102781.25;;;-3.27;98.93
71768;BME280;59604;52.138;5.446;2022-12-18T10:51:03;102779.34;;;-3.22;98.70
71768;BME280;59604;52.138;5.446;2022-12-18T10:53:40;102769.69;;;-3.15;98.51
71768;BME280;59604;52.138;5.446;2022-12-18T10:56:08;102766.09;;;-3.11;98.90
71768;BME280;59604;52.138;5.446;2022-12-18T10:58:37;102762.50;;;-3.05;98.50
71768;BME280;59604;52.138;5.446;2022-12-18T11:03:37;102755.34;;;-2.97;98.13
71768;BME280;59604;52.138;5.446;2022-12-18T11:08:33;102747.25;;;-2.88;97.97
71768;BME280;59604;52.138;5.446;2022-12-18T11:11:00;102749.72;;;-2.83;97.98
71768;BME280;59604;52.138;5.446;2022-12-18T11:13:29;102743.56;;;-2.81;97.87
71768;BME280;59604;52.138;5.446;2022-12-18T11:15:57;102730.59;;;-2.78;97.97
71768;BME280;59604;52.138;5.446;2022-12-18T11:18:33;102728.66;;;-2.73;98.02
71768;BME280;59604;52.138;5.446;2022-12-18T11:21:06;102731.09;;;-2.68;97.60
71768;BME280;59604;52.138;5.446;2022-12-18T11:23:34;102720.69;;;-2.65;97.77
71768;BME280;59604;52.138;5.446;2022-12-18T11:26:04;102711.09;;;-2.61;97.52
71768;BME280;59604;52.138;5.446;2022-12-18T11:28:46;102707.44;;;-2.56;97.37
71768;BME280;59604;52.138;5.446;2022-12-18T11:31:25;102712.41;;;-2.51;97.17
71768;BME280;59604;52.138;5.446;2022-12-18T11:34:27;102712.19;;;-2.45;96.48
71768;BME280;59604;52.138;5.446;2022-12-18T11:36:57;102716.34;;;-2.41;96.64
71768;BME280;59604;52.138;5.446;2022-12-18T11:39:54;102720.44;;;-2.35;96.23
71768;BME280;59604;52.138;5.446;2022-12-18T11:42:28;102712.44;;;-2.29;96.20
71768;BME280;59604;52.138;5.446;2022-12-18T11:50:19;102705.13;;;-2.18;95.42
71768;BME280;59604;52.138;5.446;2022-12-18T11:52:48;102697.28;;;-2.15;95.22
71768;BME280;59604;52.138;5.446;2022-12-18T11:58:11;102690.97;;;-2.08;95.18
71768;BME280;59604;52.138;5.446;2022-12-18T12:00:50;102682.31;;;-2.07;95.10
71768;BME280;59604;52.138;5.446;2022-12-18T12:03:43;102677.13;;;-2.05;94.53
71768;BME280;59604;52.138;5.446;2022-12-18T12:12:54;102655.44;;;-2.01;93.85
71768;BME280;59604;52.138;5.446;2022-12-18T12:19:13;102650.03;;;-1.95;93.94
71768;BME280;59604;52.138;5.446;2022-12-18T12:33:15;102639.91;;;-1.79;92.83
71768;BME280;59604;52.138;5.446;2022-12-18T12:38:37;102622.44;;;-1.73;91.85
71768;BME280;59604;52.138;5.446;2022-12-18T12:41:18;102629.19;;;-1.70;92.26
71768;BME280;59604;52.138;5.446;2022-12-18T12:44:09;102625.72;;;-1.69;91.96
71768;BME280;59604;52.138;5.446;2022-12-18T12:46:42;102610.97;;;-1.67;91.70
71768;BME280;59604;52.138;5.446;2022-12-18T12:49:14;102609.19;;;-1.65;91.48
71768;BME280;59604;52.138;5.446;2022-12-18T12:51:45;102612.59;;;-1.64;91.23
71768;BME280;59604;52.138;5.446;2022-12-18T12:54:19;102597.84;;;-1.62;91.34
71768;BME280;59604;52.138;5.446;2022-12-18T13:08:10;102589.84;;;-1.56;90.70
71768;BME280;59604;52.138;5.446;2022-12-18T13:10:41;102590.69;;;-1.56;90.61
71768;BME280;59604;52.138;5.446;2022-12-18T13:13:15;102593.22;;;-1.54;90.41
71768;BME280;59604;52.138;5.446;2022-12-18T13:16:04;102591.53;;;-1.55;90.10
71768;BME280;59604;52.138;5.446;2022-12-18T13:18:32;102595.72;;;-1.53;90.28
71768;BME280;59604;52.138;5.446;2022-12-18T13:23:36;102591.41;;;-1.52;90.40
71768;BME280;59604;52.138;5.446;2022-12-18T13:33:45;102581.78;;;-1.49;89.32
71768;BME280;59604;52.138;5.446;2022-12-18T13:36:33;102572.25;;;-1.48;89.42
71768;BME280;59604;52.138;5.446;2022-12-18T13:42:31;102576.59;;;-1.49;89.08
71768;BME280;59604;52.138;5.446;2022-12-18T13:45:41;102560.19;;;-1.48;89.09
71768;BME280;59604;52.138;5.446;2022-12-18T13:48:21;102556.84;;;-1.50;89.33
71768;BME280;59604;52.138;5.446;2022-12-18T13:50:55;102545.66;;;-1.50;89.42
71768;BME280;59604;52.138;5.446;2022-12-18T13:53:27;102542.16;;;-1.49;89.58
71768;BME280;59604;52.138;5.446;2022-12-18T13:55:54;102536.16;;;-1.50;89.39
71768;BME280;59604;52.138;5.446;2022-12-18T13:58:22;102537.09;;;-1.51;89.62
71768;BME280;59604;52.138;5.446;2022-12-18T14:00:48;102537.91;;;-1.50;89.58
71768;BME280;59604;52.138;5.446;2022-12-18T14:03:19;102538.75;;;-1.50;89.40
71768;BME280;59604;52.138;5.446;2022-12-18T14:05:54;102535.25;;;-1.49;89.47
71768;BME280;59604;52.138;5.446;2022-12-18T14:08:26;102531.84;;;-1.49;89.57
71768;BME280;59604;52.138;5.446;2022-12-18T14:10:55;102523.16;;;-1.48;89.31
71768;BME280;59604;52.138;5.446;2022-12-18T14:13:28;102524.09;;;-1.49;89.60
71768;BME280;59604;52.138;5.446;2022-12-18T14:15:56;102531.75;;;-1.48;89.77
71768;BME280;59604;52.138;5.446;2022-12-18T14:21:01;102505.03;;;-1.47;89.70
71768;BME280;59604;52.138;5.446;2022-12-18T14:23:40;102505.88;;;-1.46;89.45
71768;BME280;59604;52.138;5.446;2022-12-18T14:26:24;102499.84;;;-1.47;89.18
71768;BME280;59604;52.138;5.446;2022-12-18T14:28:54;102494.69;;;-1.47;89.45
71768;BME280;59604;52.138;5.446;2022-12-18T14:31:23;102490.28;;;-1.44;89.13
71768;BME280;59604;52.138;5.446;2022-12-18T14:33:51;102480.78;;;-1.44;88.98
71768;BME280;59604;52.138;5.446;2022-12-18T14:36:23;102477.34;;;-1.44;89.04
71768;BME280;59604;52.138;5.446;2022-12-18T14:38:55;102477.34;;;-1.44;88.98
71768;BME280;59604;52.138;5.446;2022-12-18T14:41:23;102484.28;;;-1.45;89.28
71768;BME280;59604;52.138;5.446;2022-12-18T14:43:52;102485.09;;;-1.44;89.31